»·PEaware :: N420TW KSNA-KLAS

N420TW :: KSNA-KLAS

FLIGHT INFORMATION

Flight Status: Arrived
Operator: Privately registered:
United States
More flights under this callsign
Pilot: Chris B. (23589)
Aircraft: CESSNA 172 SKYHAWK
(C172)
More flights by this aircraft type
Origin: KSNA John Wayne-Orange Co
United States
Destination: KLAS McCarran Intl
United States
More flights between these airports :: More routes between these airports
Route: +ANAHM1 HEC CRESO4
File this flight plan on PilotEdge
Remarks: Thank you for all the hard work y’all have been doing!
Altitude:
(Current/Filed)
10,000ft
Speed:
(Current/Filed)
110kts
Departed: 19-Mar-20 03:22 PM
Arrived: 19-Mar-20 05:17 PM
Distance/Time
Traveled:
197nm/1:55
Distance/Time
To Go:
Arrived

Flight Plot

Page will automatically refresh every two minutes.

Flight plan parsing failed; only flown route is shown


Map Options




Map Legend


Flown Route
Filed Route
Departure Airport
Arrival Airport
Navaid (VOR, NDB)
Fix

Horizontal Profiles

Position Reports

Time Latitude Longitude Heading Altitude Ground
Speed
19-Mar-20 14:50 33.676028 -117.871113 40 60ft 0kts
19-Mar-20 14:51 33.676028 -117.871113 40 60ft 0kts
19-Mar-20 14:52 33.676028 -117.871113 40 60ft 0kts
19-Mar-20 14:53 33.676028 -117.871113 40 60ft 0kts
19-Mar-20 14:54 33.676028 -117.871113 40 60ft 0kts
19-Mar-20 14:55 33.676028 -117.871113 40 60ft 0kts
19-Mar-20 14:56 33.676028 -117.871113 40 60ft 0kts
19-Mar-20 14:57 33.676028 -117.871113 40 60ft 0kts
19-Mar-20 14:58 33.676028 -117.871113 40 60ft 0kts
19-Mar-20 14:59 33.676028 -117.871113 40 60ft 0kts
19-Mar-20 15:00 33.676028 -117.871113 40 60ft 0kts
19-Mar-20 15:01 33.676028 -117.871113 40 60ft 0kts
19-Mar-20 15:02 33.676028 -117.871113 40 60ft 0kts
19-Mar-20 15:03 33.676028 -117.871113 40 60ft 0kts
19-Mar-20 15:04 33.676028 -117.871113 40 60ft 0kts
19-Mar-20 15:05 33.676028 -117.871113 40 60ft 0kts
19-Mar-20 15:06 33.676028 -117.871113 40 60ft 0kts
19-Mar-20 15:08 33.676028 -117.871113 40 60ft 0kts
19-Mar-20 15:09 33.676028 -117.871113 40 60ft 0kts
19-Mar-20 15:10 33.676028 -117.871113 40 60ft 0kts
19-Mar-20 15:11 33.676028 -117.871113 40 60ft 0kts
19-Mar-20 15:12 33.676028 -117.871113 40 60ft 0kts
19-Mar-20 15:13 33.676028 -117.871113 40 60ft 0kts
19-Mar-20 15:14 33.676028 -117.871113 40 60ft 0kts
19-Mar-20 15:15 33.676028 -117.871113 40 60ft 0kts
19-Mar-20 15:16 33.676028 -117.871113 40 60ft 0kts
19-Mar-20 15:17 33.676065 -117.870998 100 60ft 4kts
19-Mar-20 15:18 33.675966 -117.870314 75 60ft 6kts
19-Mar-20 15:19 33.679498 -117.868014 12 60ft 20kts
19-Mar-20 15:20 33.681231 -117.866527 98 60ft 0kts
19-Mar-20 15:21 33.681231 -117.866527 98 60ft 0kts
19-Mar-20 15:22 33.676221 -117.868552 207 112ft 77kts
19-Mar-20 15:23 33.662778 -117.886470 231 1220ft 70kts
19-Mar-20 15:24 33.653266 -117.905430 228 2214ft 64kts
19-Mar-20 15:25 33.659243 -117.924877 314 3055ft 84kts
19-Mar-20 15:25 33.674752 -117.939472 315 3722ft 85kts
19-Mar-20 15:27 33.696090 -117.960373 312 4644ft 84kts
19-Mar-20 15:28 33.714419 -117.978404 314 5437ft 85kts
19-Mar-20 15:28 33.729880 -117.993336 314 6063ft 86kts
19-Mar-20 15:29 33.748983 -118.010814 316 6776ft 87kts
19-Mar-20 15:30 33.768597 -118.027883 312 7460ft 86kts
19-Mar-20 15:32 33.788122 -118.039515 73 8167ft 97kts
19-Mar-20 15:32 33.793906 -118.014637 75 8721ft 93kts
19-Mar-20 15:33 33.801729 -117.984916 78 9321ft 93kts
19-Mar-20 15:34 33.809424 -117.954569 77 9903ft 95kts
19-Mar-20 15:35 33.817394 -117.924063 77 10471ft 95kts
19-Mar-20 15:36 33.825311 -117.893050 78 10978ft 101kts
19-Mar-20 15:37 33.835150 -117.855741 74 10983ft 124kts
19-Mar-20 15:38 33.845659 -117.815100 77 10992ft 131kts
19-Mar-20 15:39 33.856018 -117.772856 77 10981ft 131kts
19-Mar-20 15:40 33.867062 -117.730764 76 10976ft 131kts
19-Mar-20 15:41 33.877900 -117.688823 76 10983ft 130kts
19-Mar-20 15:42 33.888403 -117.646637 73 11003ft 134kts
19-Mar-20 15:43 33.899554 -117.603393 72 10985ft 134kts
19-Mar-20 15:44 33.910408 -117.561239 76 11016ft 131kts
19-Mar-20 15:45 33.929706 -117.526211 27 10991ft 135kts
19-Mar-20 15:46 33.962364 -117.504073 27 11019ft 134kts
19-Mar-20 15:47 33.995833 -117.483879 25 11014ft 134kts
19-Mar-20 15:48 34.029320 -117.463532 24 11010ft 134kts
19-Mar-20 15:49 34.062605 -117.443006 24 11009ft 134kts
19-Mar-20 15:50 34.096066 -117.422595 25 11010ft 134kts
19-Mar-20 15:51 34.129803 -117.403265 19 11025ft 132kts
19-Mar-20 15:52 34.163010 -117.383584 24 11007ft 133kts
19-Mar-20 15:53 34.194040 -117.364919 25 10948ft 113kts
19-Mar-20 15:54 34.216285 -117.352045 357 10518ft 79kts
19-Mar-20 15:55 34.235028 -117.356387 354 9708ft 70kts
19-Mar-20 15:56 34.253664 -117.338120 47 9028ft 100kts
19-Mar-20 15:57 34.272544 -117.313250 48 8723ft 100kts
19-Mar-20 15:58 34.297946 -117.302583 19 8475ft 97kts
19-Mar-20 15:59 34.321049 -117.285541 27 8316ft 95kts
19-Mar-20 16:00 34.345185 -117.272147 23 8181ft 96kts
19-Mar-20 16:01 34.368733 -117.256794 29 8113ft 95kts
19-Mar-20 16:02 34.392941 -117.243240 26 8088ft 95kts
19-Mar-20 16:03 34.416931 -117.228932 27 8085ft 97kts
19-Mar-20 16:04 34.440792 -117.214213 24 8135ft 98kts
19-Mar-20 16:05 34.466839 -117.199029 35 7955ft 101kts
19-Mar-20 16:06 34.482896 -117.168756 62 7899ft 107kts
19-Mar-20 16:07 34.497054 -117.138467 65 7965ft 105kts
19-Mar-20 16:08 34.511101 -117.107259 67 8020ft 106kts
19-Mar-20 16:09 34.525894 -117.075507 65 8028ft 112kts
19-Mar-20 16:10 34.541014 -117.040520 66 8022ft 122kts
19-Mar-20 16:11 34.557608 -117.002381 66 8022ft 132kts
19-Mar-20 16:12 34.574918 -116.963103 65 7932ft 131kts
19-Mar-20 16:13 34.592148 -116.924821 64 7926ft 127kts
19-Mar-20 16:14 34.608902 -116.886959 65 7942ft 126kts
19-Mar-20 16:15 34.625088 -116.849145 65 7966ft 126kts
19-Mar-20 16:16 34.641508 -116.811454 63 7976ft 126kts
19-Mar-20 16:17 34.659317 -116.774461 64 8010ft 125kts
19-Mar-20 16:18 34.673623 -116.742557 64 8800ft 100kts
19-Mar-20 16:19 34.686945 -116.712473 65 9384ft 102kts
19-Mar-20 16:20 34.700232 -116.681605 66 9946ft 104kts
19-Mar-20 16:21 34.713775 -116.650280 62 10491ft 105kts
19-Mar-20 16:22 34.728239 -116.618609 61 10914ft 115kts
19-Mar-20 16:23 34.744707 -116.581779 63 10942ft 131kts
19-Mar-20 16:24 34.762774 -116.542151 61 10921ft 135kts
19-Mar-20 16:25 34.780344 -116.501581 62 10925ft 135kts
19-Mar-20 16:26 34.798895 -116.461948 49 10925ft 135kts
19-Mar-20 16:27 34.824160 -116.427850 46 10925ft 135kts
19-Mar-20 16:28 34.849723 -116.394295 46 10925ft 135kts
19-Mar-20 16:29 34.875374 -116.360745 46 10935ft 135kts
19-Mar-20 16:30 34.901109 -116.327091 46 10942ft 136kts
19-Mar-20 16:31 34.927109 -116.293059 46 10946ft 138kts
19-Mar-20 16:32 34.953475 -116.258512 47 10947ft 140kts
19-Mar-20 16:33 34.980351 -116.223259 47 10945ft 143kts
19-Mar-20 16:34 35.007590 -116.187494 47 10939ft 145kts
19-Mar-20 16:35 35.035375 -116.150973 48 10929ft 147kts
19-Mar-20 16:36 35.063444 -116.114026 48 10926ft 148kts
19-Mar-20 16:37 35.091626 -116.076896 48 10926ft 149kts
19-Mar-20 16:38 35.119795 -116.039749 48 10921ft 148kts
19-Mar-20 16:39 35.147766 -116.002824 48 10922ft 148kts
19-Mar-20 16:40 35.175697 -115.965910 48 10922ft 148kts
19-Mar-20 16:41 35.203630 -115.928954 48 10922ft 148kts
19-Mar-20 16:42 35.231570 -115.891944 48 10923ft 148kts
19-Mar-20 16:43 35.259505 -115.854904 47 10925ft 148kts
19-Mar-20 16:44 35.287501 -115.817742 47 10927ft 148kts
19-Mar-20 16:45 35.315486 -115.780571 47 10928ft 148kts
19-Mar-20 16:46 35.343460 -115.743449 47 10930ft 148kts
19-Mar-20 16:47 35.371433 -115.706217 47 10932ft 148kts
19-Mar-20 16:48 35.399509 -115.668759 47 10933ft 148kts
19-Mar-20 16:49 35.427404 -115.631503 47 10924ft 147kts
19-Mar-20 16:50 35.454890 -115.594751 47 10925ft 146kts
19-Mar-20 16:51 35.482331 -115.558013 47 10925ft 146kts
19-Mar-20 16:52 35.509877 -115.521097 47 10925ft 147kts
19-Mar-20 16:53 35.537517 -115.484041 47 10925ft 147kts
19-Mar-20 16:54 35.565045 -115.447097 47 10925ft 147kts
19-Mar-20 16:55 35.592643 -115.410018 47 10926ft 147kts
19-Mar-20 16:56 35.620084 -115.373118 47 11009ft 142kts
19-Mar-20 16:57 35.647588 -115.336607 47 11008ft 146kts
19-Mar-20 16:58 35.674915 -115.299551 48 11021ft 145kts
19-Mar-20 16:59 35.707151 -115.270501 21 10659ft 148kts
19-Mar-20 17:00 35.744732 -115.249253 21 10033ft 147kts
19-Mar-20 17:01 35.781407 -115.228213 22 9186ft 144kts
19-Mar-20 17:02 35.816617 -115.208081 22 8557ft 138kts
19-Mar-20 17:03 35.851575 -115.190187 11 7979ft 134kts
19-Mar-20 17:04 35.886004 -115.176996 11 8012ft 130kts
19-Mar-20 17:05 35.920887 -115.164304 12 8018ft 129kts
19-Mar-20 17:06 35.955349 -115.151797 14 7742ft 130kts
19-Mar-20 17:07 35.989898 -115.140441 6 6837ft 128kts
19-Mar-20 17:08 36.024554 -115.133554 359 5931ft 127kts
19-Mar-20 17:09 36.057834 -115.136509 351 4887ft 115kts
19-Mar-20 17:10 36.076210 -115.109169 7 3911ft 125kts
19-Mar-20 17:11 36.086730 -115.134596 261 3701ft 87kts
19-Mar-20 17:12 36.087612 -115.163993 265 3236ft 84kts
19-Mar-20 17:13 36.110279 -115.157425 42 3129ft 127kts
19-Mar-20 17:15 36.111104 -115.148807 226 2611ft 57kts
19-Mar-20 17:16 36.098526 -115.157098 202 2109ft 42kts
19-Mar-20 17:17 36.094100 -115.160969 241 2107ft 0kts
19-Mar-20 17:18 36.095167 -115.161433 24 2106ft 24kts
19-Mar-20 17:19 36.098917 -115.160683 337 2099ft 0kts
19-Mar-20 17:20 36.098917 -115.160683 337 2098ft 0kts

Navigation Log

Ident Type
Flight plan parsing failed, navigation log unavailable